createdAt,value
2023-11-18T00:00:55.941Z,1021.04
2023-11-18T00:01:56.043Z,1021.14
2023-11-18T00:02:55.899Z,1021.13
2023-11-18T00:03:55.990Z,1021.07
2023-11-18T00:04:55.899Z,1021.16
2023-11-18T00:05:55.882Z,1021.16
2023-11-18T00:06:55.924Z,1021.17
2023-11-18T00:07:55.833Z,1021.20
2023-11-18T00:08:55.802Z,1021.19
2023-11-18T00:09:56.817Z,1021.18
2023-11-18T00:10:55.821Z,1021.18
2023-11-18T00:11:56.723Z,1021.22
2023-11-18T00:12:55.803Z,1021.25
2023-11-18T00:13:55.802Z,1021.26
2023-11-18T00:14:55.749Z,1021.22
2023-11-18T00:15:55.727Z,1021.25
2023-11-18T00:16:55.774Z,1021.30
2023-11-18T00:17:55.702Z,1021.30
2023-11-18T00:18:55.704Z,1021.26
2023-11-18T00:19:55.703Z,1021.22
2023-11-18T00:20:55.642Z,1021.23
2023-11-18T00:21:55.667Z,1021.22
2023-11-18T00:22:55.665Z,1021.22
2023-11-18T00:23:55.592Z,1021.19
2023-11-18T00:24:55.647Z,1021.23
2023-11-18T00:25:55.625Z,1021.19
2023-11-18T00:26:55.589Z,1021.23
2023-11-18T00:27:55.568Z,1021.21
2023-11-18T00:28:56.571Z,1021.20
2023-11-18T00:29:55.574Z,1021.19
2023-11-18T00:30:55.615Z,1021.22
2023-11-18T00:31:55.625Z,1021.25
2023-11-18T00:32:55.597Z,1021.23
2023-11-18T00:33:55.454Z,1021.22
2023-11-18T00:34:55.497Z,1021.22
2023-11-18T00:35:55.447Z,1021.18
2023-11-18T00:36:55.595Z,1021.16
2023-11-18T00:37:55.469Z,1021.17
2023-11-18T00:38:55.394Z,1021.15
2023-11-18T00:39:55.384Z,1021.12
2023-11-18T00:40:55.392Z,1021.15
2023-11-18T00:41:55.380Z,1021.15
2023-11-18T00:42:55.476Z,1021.13
2023-11-18T00:43:55.329Z,1021.07
2023-11-18T00:44:55.345Z,1021.07
2023-11-18T00:45:55.299Z,1021.07
2023-11-18T00:46:55.331Z,1021.09
2023-11-18T00:47:55.320Z,1021.11
2023-11-18T00:48:55.299Z,1021.10
2023-11-18T00:49:55.445Z,1021.11
2023-11-18T00:50:55.236Z,1021.13
2023-11-18T00:51:55.242Z,1021.10
2023-11-18T00:52:55.306Z,1021.10
2023-11-18T00:53:55.216Z,1021.09
2023-11-18T00:54:55.232Z,1021.10
2023-11-18T00:55:55.182Z,1021.09
2023-11-18T00:56:55.185Z,1021.06
2023-11-18T00:57:55.148Z,1021.10
2023-11-18T00:58:56.111Z,1021.10
2023-11-18T00:59:55.134Z,1021.11
2023-11-18T01:00:55.164Z,1021.15
2023-11-18T01:01:55.164Z,1021.17
2023-11-18T01:02:55.242Z,1021.19
2023-11-18T01:03:55.097Z,1021.15
2023-11-18T01:04:55.142Z,1021.16
2023-11-18T01:05:55.066Z,1021.16
2023-11-18T01:06:55.065Z,1021.23
2023-11-18T01:07:55.091Z,1021.17
2023-11-18T01:08:55.001Z,1021.22
2023-11-18T01:09:54.998Z,1021.22
2023-11-18T01:10:55.017Z,1021.18
2023-11-18T01:12:07.643Z,1021.24
2023-11-18T01:12:55.970Z,1021.22
2023-11-18T01:13:54.965Z,1021.25
2023-11-18T01:14:54.941Z,1021.31
2023-11-18T01:15:54.896Z,1021.32
2023-11-18T01:16:54.930Z,1021.28
2023-11-18T01:17:55.038Z,1021.33
2023-11-18T01:18:54.934Z,1021.35
2023-11-18T01:19:54.924Z,1021.35
2023-11-18T01:20:54.831Z,1021.37
2023-11-18T01:21:54.834Z,1021.36
2023-11-18T01:22:54.831Z,1021.34
2023-11-18T01:23:54.787Z,1021.37
2023-11-18T01:24:54.841Z,1021.36
2023-11-18T01:25:54.780Z,1021.37
2023-11-18T01:26:54.783Z,1021.42
2023-11-18T01:27:54.757Z,1021.40
2023-11-18T01:28:54.757Z,1021.41
2023-11-18T01:29:54.733Z,1021.44
2023-11-18T01:30:54.860Z,1021.43
2023-11-18T01:31:54.760Z,1021.44
2023-11-18T01:32:54.735Z,1021.40
2023-11-18T01:33:54.679Z,1021.39
2023-11-18T01:34:54.774Z,1021.42
2023-11-18T01:35:54.618Z,1021.42
2023-11-18T01:36:54.687Z,1021.43
2023-11-18T01:37:54.720Z,1021.43
2023-11-18T01:38:54.586Z,1021.40
2023-11-18T01:39:54.606Z,1021.41
2023-11-18T01:40:54.596Z,1021.43
2023-11-18T01:41:54.565Z,1021.39
2023-11-18T01:42:54.584Z,1021.39
2023-11-18T01:43:54.653Z,1021.39
2023-11-18T01:44:54.543Z,1021.36
2023-11-18T01:45:54.633Z,1021.41
2023-11-18T01:46:54.541Z,1021.38
2023-11-18T01:47:54.493Z,1021.36
2023-11-18T01:48:54.548Z,1021.39
2023-11-18T01:49:54.500Z,1021.40
2023-11-18T01:50:54.436Z,1021.40
2023-11-18T01:51:55.434Z,1021.37
2023-11-18T01:52:54.466Z,1021.44
2023-11-18T01:53:54.388Z,1021.43
2023-11-18T01:54:54.436Z,1021.49
2023-11-18T01:55:55.389Z,1021.46
2023-11-18T01:56:54.346Z,1021.52
2023-11-18T01:57:54.328Z,1021.47
2023-11-18T01:58:54.384Z,1021.50
2023-11-18T01:59:54.355Z,1021.46
2023-11-18T02:00:54.318Z,1021.50
2023-11-18T02:01:54.979Z,1021.49
2023-11-18T02:02:54.400Z,1021.52
2023-11-18T02:03:54.444Z,1021.53
2023-11-18T02:04:54.299Z,1021.51
2023-11-18T02:05:54.214Z,1021.48
2023-11-18T02:06:54.278Z,1021.55
2023-11-18T02:07:54.206Z,1021.51
2023-11-18T02:08:54.183Z,1021.56
2023-11-18T02:09:54.192Z,1021.60
2023-11-18T02:10:54.179Z,1021.55
2023-11-18T02:11:54.163Z,1021.56
2023-11-18T02:12:54.193Z,1021.55
2023-11-18T02:13:54.190Z,1021.50
2023-11-18T02:14:54.134Z,1021.49
2023-11-18T02:15:54.081Z,1021.49
2023-11-18T02:16:54.100Z,1021.51
2023-11-18T02:17:54.168Z,1021.49
2023-11-18T02:18:54.201Z,1021.45
2023-11-18T02:19:54.077Z,1021.46
2023-11-18T02:20:54.020Z,1021.49
2023-11-18T02:21:54.026Z,1021.44
2023-11-18T02:22:54.970Z,1021.47
2023-11-18T02:23:54.680Z,1021.47
2023-11-18T02:24:54.028Z,1021.45
2023-11-18T02:25:54.021Z,1021.48
2023-11-18T02:26:53.934Z,1021.49
2023-11-18T02:27:53.922Z,1021.43
2023-11-18T02:28:54.010Z,1021.40
2023-11-18T02:29:54.028Z,1021.40
2023-11-18T02:30:53.934Z,1021.41
2023-11-18T02:31:53.979Z,1021.45
2023-11-18T02:32:53.961Z,1021.42
2023-11-18T02:33:53.948Z,1021.41
2023-11-18T02:34:53.874Z,1021.47
2023-11-18T02:35:53.819Z,1021.49
2023-11-18T02:36:53.835Z,1021.49
2023-11-18T02:37:53.853Z,1021.45
2023-11-18T02:38:53.776Z,1021.45
2023-11-18T02:39:53.804Z,1021.50
2023-11-18T02:40:53.859Z,1021.47
2023-11-18T02:41:53.769Z,1021.41
2023-11-18T02:42:53.756Z,1021.48
2023-11-18T02:43:53.763Z,1021.44
2023-11-18T02:44:53.696Z,1021.45
2023-11-18T02:45:53.747Z,1021.47
2023-11-18T02:46:53.729Z,1021.45
2023-11-18T02:47:53.684Z,1021.46
2023-11-18T02:48:53.673Z,1021.46
2023-11-18T02:49:53.685Z,1021.45
2023-11-18T02:50:53.617Z,1021.49
2023-11-18T02:51:53.627Z,1021.44
2023-11-18T02:52:53.671Z,1021.42
2023-11-18T02:53:53.597Z,1021.45
2023-11-18T02:54:53.637Z,1021.44
2023-11-18T02:55:53.587Z,1021.42
2023-11-18T02:56:53.565Z,1021.43
2023-11-18T02:57:53.546Z,1021.38
2023-11-18T02:58:53.555Z,1021.39
2023-11-18T02:59:53.526Z,1021.36
2023-11-18T03:00:53.541Z,1021.36
2023-11-18T03:01:53.525Z,1021.39
2023-11-18T03:02:54.202Z,1021.28
2023-11-18T03:03:53.526Z,1021.31
2023-11-18T03:04:53.512Z,1021.32
2023-11-18T03:05:54.132Z,1021.36
2023-11-18T03:06:53.485Z,1021.36
2023-11-18T03:07:53.442Z,1021.42
2023-11-18T03:08:53.407Z,1021.38
2023-11-18T03:09:53.398Z,1021.34
2023-11-18T03:10:53.359Z,1021.35
2023-11-18T03:11:53.368Z,1021.39
2023-11-18T03:12:53.361Z,1021.45
2023-11-18T03:13:53.363Z,1021.49
2023-11-18T03:14:53.324Z,1021.47
2023-11-18T03:15:53.321Z,1021.50
2023-11-18T03:16:53.343Z,1021.47
2023-11-18T03:17:53.438Z,1021.50
2023-11-18T03:18:53.487Z,1021.46
2023-11-18T03:19:53.346Z,1021.46
2023-11-18T03:20:53.232Z,1021.49
2023-11-18T03:21:53.219Z,1021.46
2023-11-18T03:22:53.475Z,1021.49
2023-11-18T03:23:53.209Z,1021.52
2023-11-18T03:24:53.217Z,1021.50
2023-11-18T03:25:53.191Z,1021.52
2023-11-18T03:26:53.173Z,1021.54
2023-11-18T03:27:53.159Z,1021.52
2023-11-18T03:28:53.156Z,1021.50
2023-11-18T03:29:54.012Z,1021.48
2023-11-18T03:30:53.123Z,1021.49
2023-11-18T03:31:53.098Z,1021.46
2023-11-18T03:32:53.120Z,1021.51
2023-11-18T03:33:53.096Z,1021.52
2023-11-18T03:34:53.076Z,1021.50
2023-11-18T03:35:53.029Z,1021.49
2023-11-18T03:36:53.042Z,1021.47
2023-11-18T03:37:53.023Z,1021.44
2023-11-18T03:38:52.987Z,1021.40
2023-11-18T03:39:53.022Z,1021.43
2023-11-18T03:40:53.051Z,1021.45
2023-11-18T03:41:52.947Z,1021.42
2023-11-18T03:42:53.095Z,1021.41
2023-11-18T03:43:52.934Z,1021.43
2023-11-18T03:44:52.931Z,1021.42
2023-11-18T03:45:52.936Z,1021.42
2023-11-18T03:46:52.920Z,1021.38
2023-11-18T03:47:52.884Z,1021.38
2023-11-18T03:48:52.911Z,1021.38
2023-11-18T03:49:52.852Z,1021.39
2023-11-18T03:50:53.793Z,1021.36
2023-11-18T03:51:52.807Z,1021.41
2023-11-18T03:52:52.875Z,1021.40
2023-11-18T03:53:52.789Z,1021.38
2023-11-18T03:54:52.832Z,1021.42
2023-11-18T03:55:52.850Z,1021.37
2023-11-18T03:56:52.775Z,1021.42
2023-11-18T03:57:52.739Z,1021.36
2023-11-18T03:58:52.757Z,1021.34
2023-11-18T03:59:53.677Z,1021.33
2023-11-18T04:00:52.758Z,1021.38
2023-11-18T04:01:54.462Z,1021.38
2023-11-18T04:02:52.748Z,1021.40
2023-11-18T04:03:52.707Z,1021.43
2023-11-18T04:04:52.689Z,1021.43
2023-11-18T04:05:52.646Z,1021.47
2023-11-18T04:06:52.700Z,1021.43
2023-11-18T04:07:52.625Z,1021.39
2023-11-18T04:08:52.592Z,1021.44
2023-11-18T04:09:52.604Z,1021.42
2023-11-18T04:10:52.586Z,1021.39
2023-11-18T04:11:52.555Z,1021.44
2023-11-18T04:12:52.563Z,1021.49
2023-11-18T04:13:52.563Z,1021.42
2023-11-18T04:14:52.537Z,1021.36
2023-11-18T04:15:52.499Z,1021.41
2023-11-18T04:16:52.598Z,1021.40
2023-11-18T04:17:52.585Z,1021.38
2023-11-18T04:18:52.496Z,1021.35
2023-11-18T04:19:52.542Z,1021.34
2023-11-18T04:20:52.426Z,1021.34
2023-11-18T04:21:52.418Z,1021.34
2023-11-18T04:22:52.486Z,1021.27
2023-11-18T04:23:52.422Z,1021.25
2023-11-18T04:24:52.432Z,1021.26
2023-11-18T04:25:52.390Z,1021.28
2023-11-18T04:26:52.373Z,1021.30
2023-11-18T04:27:52.374Z,1021.27
2023-11-18T04:28:52.391Z,1021.29
2023-11-18T04:29:52.395Z,1021.34
2023-11-18T04:30:52.468Z,1021.31
2023-11-18T04:31:53.242Z,1021.31
2023-11-18T04:32:52.302Z,1021.34
2023-11-18T04:33:52.289Z,1021.30
2023-11-18T04:34:52.450Z,1021.30
2023-11-18T04:35:52.229Z,1021.31
2023-11-18T04:36:52.254Z,1021.32
2023-11-18T04:37:52.253Z,1021.30
2023-11-18T04:38:52.193Z,1021.37
2023-11-18T04:39:52.204Z,1021.33
2023-11-18T04:40:52.256Z,1021.35
2023-11-18T04:41:52.143Z,1021.33
2023-11-18T04:42:52.172Z,1021.30
2023-11-18T04:43:52.268Z,1021.30
2023-11-18T04:44:52.152Z,1021.27
2023-11-18T04:45:52.092Z,1021.27
2023-11-18T04:46:52.159Z,1021.23
2023-11-18T04:47:52.204Z,1021.20
2023-11-18T04:48:52.288Z,1021.21
2023-11-18T04:49:52.146Z,1021.16
2023-11-18T04:50:52.039Z,1021.14
2023-11-18T04:51:52.039Z,1021.11
2023-11-18T04:52:52.060Z,1021.08
2023-11-18T04:53:51.987Z,1021.07
2023-11-18T04:54:52.049Z,1021.09
2023-11-18T04:55:51.988Z,1021.03
2023-11-18T04:56:51.985Z,1021.03
2023-11-18T04:57:51.969Z,1021.02
2023-11-18T04:58:51.960Z,1021.00
2023-11-18T04:59:51.940Z,1020.99
2023-11-18T05:00:51.960Z,1020.94
2023-11-18T05:01:52.038Z,1020.95
2023-11-18T05:02:52.008Z,1020.95
2023-11-18T05:03:51.932Z,1020.89
2023-11-18T05:04:51.935Z,1020.91
2023-11-18T05:05:53.341Z,1020.86
2023-11-18T05:06:51.870Z,1020.85
2023-11-18T05:07:52.008Z,1020.86
2023-11-18T05:08:51.830Z,1020.84
2023-11-18T05:09:51.802Z,1020.83
2023-11-18T05:10:51.991Z,1020.81
2023-11-18T05:11:51.808Z,1020.82
2023-11-18T05:12:51.861Z,1020.81
2023-11-18T05:13:51.750Z,1020.81
2023-11-18T05:14:51.732Z,1020.92
2023-11-18T05:15:51.698Z,1020.91
2023-11-18T05:16:51.733Z,1020.87
2023-11-18T05:17:51.727Z,1020.94
2023-11-18T05:18:51.693Z,1020.82
2023-11-18T05:19:51.697Z,1020.81
2023-11-18T05:20:51.633Z,1020.81
2023-11-18T05:21:51.617Z,1020.84
2023-11-18T05:22:51.622Z,1020.82
2023-11-18T05:23:51.615Z,1020.78
2023-11-18T05:24:51.645Z,1020.75
2023-11-18T05:25:51.594Z,1020.71
2023-11-18T05:26:51.576Z,1020.72
2023-11-18T05:27:51.564Z,1020.70
2023-11-18T05:28:51.598Z,1020.68
2023-11-18T05:29:51.540Z,1020.65
2023-11-18T05:30:51.568Z,1020.66
2023-11-18T05:31:51.538Z,1020.71
2023-11-18T05:32:51.523Z,1020.61
2023-11-18T05:33:51.468Z,1020.59
2023-11-18T05:34:51.494Z,1020.60
2023-11-18T05:35:51.424Z,1020.57
2023-11-18T05:36:51.477Z,1020.63
2023-11-18T05:37:51.418Z,1020.65
2023-11-18T05:38:51.394Z,1020.61
2023-11-18T05:39:51.373Z,1020.64
2023-11-18T05:40:51.439Z,1020.68
2023-11-18T05:41:51.389Z,1020.64
2023-11-18T05:42:51.508Z,1020.60
2023-11-18T05:43:51.338Z,1020.61
2023-11-18T05:44:51.313Z,1020.67
2023-11-18T05:45:51.309Z,1020.66
2023-11-18T05:46:51.377Z,1020.65
2023-11-18T05:47:51.303Z,1020.71
2023-11-18T05:48:51.302Z,1020.74
2023-11-18T05:49:51.299Z,1020.73
2023-11-18T05:50:51.235Z,1020.74
2023-11-18T05:51:51.220Z,1020.76
2023-11-18T05:52:51.302Z,1020.76
2023-11-18T05:53:51.197Z,1020.76
2023-11-18T05:54:51.251Z,1020.76
2023-11-18T05:55:51.222Z,1020.75
2023-11-18T05:56:51.170Z,1020.77
2023-11-18T05:57:51.163Z,1020.77
2023-11-18T05:58:52.122Z,1020.78
2023-11-18T05:59:51.158Z,1020.78
2023-11-18T06:00:51.129Z,1020.82
2023-11-18T06:02:02.750Z,1020.83
2023-11-18T06:02:51.167Z,1020.83
2023-11-18T06:03:51.299Z,1020.87
2023-11-18T06:04:51.108Z,1020.85
2023-11-18T06:05:51.031Z,1020.87
2023-11-18T06:06:51.244Z,1020.93
2023-11-18T06:07:51.024Z,1020.94
2023-11-18T06:08:50.986Z,1020.94
2023-11-18T06:09:51.016Z,1020.95
2023-11-18T06:10:51.047Z,1020.85
2023-11-18T06:11:51.113Z,1020.90
2023-11-18T06:12:51.024Z,1020.84
2023-11-18T06:13:51.037Z,1020.86
2023-11-18T06:14:51.625Z,1020.87
2023-11-18T06:15:50.901Z,1020.85
2023-11-18T06:16:51.003Z,1020.82
2023-11-18T06:17:50.997Z,1020.84
2023-11-18T06:18:50.906Z,1020.80
2023-11-18T06:19:50.858Z,1020.82
2023-11-18T06:20:50.833Z,1020.77
2023-11-18T06:21:50.821Z,1020.78
2023-11-18T06:22:50.852Z,1020.82
2023-11-18T06:23:50.797Z,1020.82
2023-11-18T06:24:50.850Z,1020.80
2023-11-18T06:25:50.772Z,1020.74
2023-11-18T06:26:50.752Z,1020.73
2023-11-18T06:27:50.769Z,1020.74
2023-11-18T06:28:50.826Z,1020.72
2023-11-18T06:29:50.715Z,1020.75
2023-11-18T06:30:50.745Z,1020.75
2023-11-18T06:31:50.705Z,1020.77
2023-11-18T06:32:50.685Z,1020.81
2023-11-18T06:33:50.769Z,1020.90
2023-11-18T06:34:50.892Z,1020.84
2023-11-18T06:35:50.626Z,1020.81
2023-11-18T06:36:50.644Z,1020.83
2023-11-18T06:37:51.595Z,1020.81
2023-11-18T06:38:50.593Z,1020.87
2023-11-18T06:39:50.575Z,1020.84
2023-11-18T06:40:50.611Z,1020.92
2023-11-18T06:41:50.581Z,1020.94
2023-11-18T06:42:50.572Z,1020.94
2023-11-18T06:43:50.524Z,1020.91
2023-11-18T06:44:50.535Z,1020.90
2023-11-18T06:45:50.496Z,1020.95
2023-11-18T06:46:50.569Z,1020.93
2023-11-18T06:47:50.670Z,1020.93
2023-11-18T06:48:50.530Z,1020.94
2023-11-18T06:49:50.445Z,1020.90
2023-11-18T06:50:50.471Z,1020.94
2023-11-18T06:51:50.444Z,1020.92
2023-11-18T06:52:50.480Z,1020.91
2023-11-18T06:53:50.417Z,1020.87
2023-11-18T06:54:50.443Z,1020.87
2023-11-18T06:55:50.397Z,1020.85
2023-11-18T06:56:50.351Z,1020.84
2023-11-18T06:57:50.404Z,1020.89
2023-11-18T06:58:50.367Z,1020.90
2023-11-18T06:59:50.338Z,1020.82
2023-11-18T07:00:50.343Z,1020.83
2023-11-18T07:01:50.341Z,1020.77
2023-11-18T07:02:50.432Z,1020.77
2023-11-18T07:03:50.306Z,1020.78
2023-11-18T07:04:50.309Z,1020.76
2023-11-18T07:05:50.280Z,1020.77
2023-11-18T07:06:50.289Z,1020.75
2023-11-18T07:07:50.236Z,1020.81
2023-11-18T07:08:50.201Z,1020.80
2023-11-18T07:09:52.538Z,1020.84
2023-11-18T07:10:50.193Z,1020.84
2023-11-18T07:11:50.184Z,1020.88
2023-11-18T07:12:50.241Z,1020.88
2023-11-18T07:13:50.212Z,1020.84
2023-11-18T07:14:50.143Z,1020.84
2023-11-18T07:15:51.123Z,1020.86
2023-11-18T07:16:50.156Z,1020.84
2023-11-18T07:17:50.128Z,1020.89
2023-11-18T07:18:50.262Z,1020.81
2023-11-18T07:19:50.091Z,1020.79
2023-11-18T07:20:50.037Z,1020.83
2023-11-18T07:21:50.059Z,1020.82
2023-11-18T07:22:50.028Z,1020.83
2023-11-18T07:23:50.036Z,1020.83
2023-11-18T07:24:50.113Z,1020.81
2023-11-18T07:25:49.992Z,1020.85
2023-11-18T07:26:50.293Z,1020.77
2023-11-18T07:27:49.952Z,1020.77
2023-11-18T07:28:49.946Z,1020.77
2023-11-18T07:29:49.927Z,1020.72
2023-11-18T07:30:51.000Z,1020.71
2023-11-18T07:31:49.949Z,1020.66
2023-11-18T07:32:49.907Z,1020.71
2023-11-18T07:33:49.896Z,1020.64
2023-11-18T07:34:49.853Z,1020.66
2023-11-18T07:35:50.563Z,1020.63
2023-11-18T07:36:49.894Z,1020.74
2023-11-18T07:37:49.922Z,1020.66
2023-11-18T07:38:49.801Z,1020.70
2023-11-18T07:39:49.793Z,1020.72
2023-11-18T07:40:49.789Z,1020.70
2023-11-18T07:41:49.765Z,1020.66
2023-11-18T07:42:49.815Z,1020.67
2023-11-18T07:43:49.790Z,1020.69
2023-11-18T07:44:50.458Z,1020.71
2023-11-18T07:45:49.754Z,1020.68
2023-11-18T07:46:49.754Z,1020.70
2023-11-18T07:47:50.192Z,1020.66
2023-11-18T07:48:49.696Z,1020.64
2023-11-18T07:49:49.711Z,1020.65
2023-11-18T07:50:49.643Z,1020.63
2023-11-18T07:51:49.633Z,1020.60
2023-11-18T07:52:49.642Z,1020.58
2023-11-18T07:53:49.605Z,1020.62
2023-11-18T07:54:52.332Z,1020.67
2023-11-18T07:55:49.613Z,1020.60
2023-11-18T07:56:49.591Z,1020.59
2023-11-18T07:57:49.603Z,1020.57
2023-11-18T07:58:49.656Z,1020.57
2023-11-18T07:59:49.601Z,1020.60
2023-11-18T08:00:49.569Z,1020.64
2023-11-18T08:01:49.665Z,1020.65
2023-11-18T08:02:49.549Z,1020.67
2023-11-18T08:03:49.670Z,1020.66
2023-11-18T08:04:49.495Z,1020.61
2023-11-18T08:05:49.474Z,1020.61
2023-11-18T08:06:49.515Z,1020.60
2023-11-18T08:07:49.519Z,1020.59
2023-11-18T08:08:49.628Z,1020.57
2023-11-18T08:09:49.393Z,1020.56
2023-11-18T08:10:49.513Z,1020.55
2023-11-18T08:11:49.391Z,1020.58
2023-11-18T08:12:49.435Z,1020.55
2023-11-18T08:13:49.412Z,1020.49
2023-11-18T08:14:49.354Z,1020.54
2023-11-18T08:15:49.398Z,1020.49
2023-11-18T08:16:49.432Z,1020.47
2023-11-18T08:17:49.360Z,1020.52
2023-11-18T08:18:49.327Z,1020.48
2023-11-18T08:19:49.322Z,1020.47
2023-11-18T08:20:49.253Z,1020.47
2023-11-18T08:21:49.240Z,1020.45
2023-11-18T08:22:49.274Z,1020.43
2023-11-18T08:23:51.327Z,1020.38
2023-11-18T08:24:49.270Z,1020.38
2023-11-18T08:25:49.221Z,1020.39
2023-11-18T08:26:49.190Z,1020.33
2023-11-18T08:27:49.184Z,1020.38
2023-11-18T08:28:49.199Z,1020.38
2023-11-18T08:29:49.164Z,1020.30
2023-11-18T08:30:49.212Z,1020.37
2023-11-18T08:31:49.173Z,1020.41
2023-11-18T08:32:49.398Z,1020.42
2023-11-18T08:33:49.096Z,1020.43
2023-11-18T08:34:49.809Z,1020.41
2023-11-18T08:35:49.044Z,1020.36
2023-11-18T08:36:49.076Z,1020.35
2023-11-18T08:37:49.074Z,1020.35
2023-11-18T08:38:49.006Z,1020.34
2023-11-18T08:39:48.991Z,1020.37
2023-11-18T08:40:49.991Z,1020.38
2023-11-18T08:41:48.988Z,1020.33
2023-11-18T08:42:49.227Z,1020.32
2023-11-18T08:43:49.027Z,1020.30
2023-11-18T08:44:48.948Z,1020.32
2023-11-18T08:45:48.951Z,1020.27
2023-11-18T08:46:48.908Z,1020.33
2023-11-18T08:47:48.944Z,1020.31
2023-11-18T08:48:48.916Z,1020.24
2023-11-18T08:49:48.953Z,1020.26
2023-11-18T08:50:49.828Z,1020.26
2023-11-18T08:51:48.857Z,1020.28
2023-11-18T08:52:49.079Z,1020.23
2023-11-18T08:53:49.647Z,1020.25
2023-11-18T08:54:48.822Z,1020.23
2023-11-18T08:55:48.790Z,1020.29
2023-11-18T08:56:48.753Z,1020.25
2023-11-18T08:57:48.762Z,1020.17
2023-11-18T08:58:48.786Z,1020.22
2023-11-18T08:59:48.744Z,1020.23
2023-11-18T09:00:48.747Z,1020.19
2023-11-18T09:01:48.744Z,1020.22
2023-11-18T09:02:54.217Z,1020.15
2023-11-18T09:03:50.286Z,1020.18
2023-11-18T09:04:48.699Z,1020.14
2023-11-18T09:05:48.660Z,1020.15
2023-11-18T09:06:48.656Z,1020.11
2023-11-18T09:07:48.671Z,1020.13
2023-11-18T09:08:48.591Z,1020.18
2023-11-18T09:09:48.610Z,1020.14
2023-11-18T09:10:48.580Z,1020.13
2023-11-18T09:11:48.562Z,1020.15
2023-11-18T09:12:48.577Z,1020.18
2023-11-18T09:13:48.611Z,1020.12
2023-11-18T09:14:48.538Z,1020.10
2023-11-18T09:15:48.535Z,1020.08
2023-11-18T09:16:48.532Z,1020.04
2023-11-18T09:17:48.586Z,1020.00
2023-11-18T09:18:48.624Z,1019.97
2023-11-18T09:19:48.483Z,1019.93
2023-11-18T09:20:48.433Z,1019.83
2023-11-18T09:21:48.451Z,1019.82
2023-11-18T09:22:48.484Z,1019.80
2023-11-18T09:23:48.437Z,1019.77
2023-11-18T09:24:48.466Z,1019.85
2023-11-18T09:25:48.407Z,1019.82
2023-11-18T09:26:48.379Z,1019.81
2023-11-18T09:27:48.376Z,1019.87
2023-11-18T09:28:48.367Z,1019.84
2023-11-18T09:29:48.312Z,1019.83
2023-11-18T09:30:48.335Z,1019.84
2023-11-18T09:31:48.443Z,1019.72
2023-11-18T09:32:48.454Z,1019.71
2023-11-18T09:33:49.872Z,1019.74
2023-11-18T09:34:48.262Z,1019.69
2023-11-18T09:35:48.236Z,1019.69
2023-11-18T09:36:48.348Z,1019.68
2023-11-18T09:37:48.263Z,1019.64
2023-11-18T09:38:49.409Z,1019.64
2023-11-18T09:39:48.185Z,1019.61
2023-11-18T09:40:48.224Z,1019.64
2023-11-18T09:41:48.160Z,1019.59
2023-11-18T09:42:48.180Z,1019.59
2023-11-18T09:43:48.787Z,1019.59
2023-11-18T09:44:48.126Z,1019.56
2023-11-18T09:45:48.122Z,1019.53
2023-11-18T09:46:48.177Z,1019.57
2023-11-18T09:47:48.169Z,1019.55
2023-11-18T09:48:48.296Z,1019.51
2023-11-18T09:49:48.130Z,1019.55
2023-11-18T09:50:48.075Z,1019.46
2023-11-18T09:51:48.290Z,1019.49
2023-11-18T09:52:48.061Z,1019.46
2023-11-18T09:53:48.023Z,1019.52
2023-11-18T09:54:48.157Z,1019.54
2023-11-18T09:55:48.004Z,1019.55
2023-11-18T09:56:47.958Z,1019.52
2023-11-18T09:57:47.989Z,1019.55
2023-11-18T09:58:47.992Z,1019.56
2023-11-18T09:59:47.912Z,1019.51
2023-11-18T10:00:47.954Z,1019.50
2023-11-18T10:01:48.178Z,1019.44
2023-11-18T10:02:48.056Z,1019.37
2023-11-18T10:03:48.687Z,1019.31
2023-11-18T10:04:47.897Z,1019.33
2023-11-18T10:05:47.845Z,1019.32
2023-11-18T10:06:47.864Z,1019.32
2023-11-18T10:07:47.844Z,1019.31
2023-11-18T10:08:47.797Z,1019.33
2023-11-18T10:09:47.817Z,1019.28
2023-11-18T10:10:47.798Z,1019.25
2023-11-18T10:11:47.893Z,1019.21
2023-11-18T10:12:47.808Z,1019.19
2023-11-18T10:13:47.803Z,1019.15
2023-11-18T10:14:47.709Z,1019.17
2023-11-18T10:15:48.846Z,1019.13
2023-11-18T10:16:47.703Z,1019.12
2023-11-18T10:17:47.702Z,1019.17
2023-11-18T10:18:47.727Z,1019.14
2023-11-18T10:19:47.692Z,1019.17
2023-11-18T10:20:47.636Z,1019.16
2023-11-18T10:21:47.644Z,1019.16
2023-11-18T10:22:47.643Z,1019.17
2023-11-18T10:23:47.619Z,1019.13
2023-11-18T10:24:47.824Z,1019.21
2023-11-18T10:25:47.634Z,1019.18
2023-11-18T10:26:47.547Z,1019.22
2023-11-18T10:27:47.564Z,1019.22
2023-11-18T10:28:47.566Z,1019.16
2023-11-18T10:29:47.550Z,1019.19
2023-11-18T10:30:47.637Z,1019.15
2023-11-18T10:31:47.534Z,1019.13
2023-11-18T10:32:47.514Z,1019.07
2023-11-18T10:33:47.494Z,1019.14
2023-11-18T10:34:47.518Z,1019.09
2023-11-18T10:35:47.433Z,1019.10
2023-11-18T10:36:47.443Z,1019.04
2023-11-18T10:37:47.463Z,1019.05
2023-11-18T10:38:47.392Z,1019.02
2023-11-18T10:39:47.377Z,1019.03
2023-11-18T10:40:47.368Z,1018.96
2023-11-18T10:41:47.383Z,1018.99
2023-11-18T10:42:47.363Z,1018.95
2023-11-18T10:43:47.352Z,1018.92
2023-11-18T10:44:47.342Z,1018.92
2023-11-18T10:45:47.305Z,1018.89
2023-11-18T10:46:47.414Z,1018.85
2023-11-18T10:47:47.310Z,1018.77
2023-11-18T10:48:47.314Z,1018.75
2023-11-18T10:49:47.308Z,1018.81
2023-11-18T10:50:47.226Z,1018.73
2023-11-18T10:51:47.208Z,1018.71
2023-11-18T10:52:47.312Z,1018.72
2023-11-18T10:53:47.242Z,1018.64
2023-11-18T10:54:47.219Z,1018.67
2023-11-18T10:55:47.306Z,1018.63
2023-11-18T10:56:47.208Z,1018.57
2023-11-18T10:57:47.208Z,1018.60
2023-11-18T10:58:47.257Z,1018.57
2023-11-18T10:59:47.109Z,1018.55
2023-11-18T11:00:47.251Z,1018.58
2023-11-18T11:01:47.206Z,1018.55
2023-11-18T11:02:47.106Z,1018.49
2023-11-18T11:03:47.050Z,1018.51
2023-11-18T11:04:47.115Z,1018.57
2023-11-18T11:05:47.076Z,1018.50
2023-11-18T11:06:47.148Z,1018.50
2023-11-18T11:07:47.074Z,1018.51
2023-11-18T11:08:47.006Z,1018.50
2023-11-18T11:09:47.015Z,1018.51
2023-11-18T11:10:46.993Z,1018.47
2023-11-18T11:11:46.944Z,1018.49
2023-11-18T11:12:46.946Z,1018.47
2023-11-18T11:13:47.895Z,1018.45
2023-11-18T11:14:46.904Z,1018.41
2023-11-18T11:15:54.938Z,1018.34
2023-11-18T11:16:47.986Z,1018.35
2023-11-18T11:17:46.898Z,1018.30
2023-11-18T11:18:46.873Z,1018.31
2023-11-18T11:19:46.888Z,1018.32
2023-11-18T11:20:46.823Z,1018.28
2023-11-18T11:21:46.814Z,1018.35
2023-11-18T11:22:46.814Z,1018.34
2023-11-18T11:23:46.802Z,1018.32
2023-11-18T11:24:46.816Z,1018.31
2023-11-18T11:25:46.825Z,1018.28
2023-11-18T11:26:46.772Z,1018.30
2023-11-18T11:27:47.489Z,1018.23
2023-11-18T11:28:46.818Z,1018.25
2023-11-18T11:29:46.696Z,1018.31
2023-11-18T11:30:46.787Z,1018.30
2023-11-18T11:31:46.724Z,1018.30
2023-11-18T11:32:46.674Z,1018.28
2023-11-18T11:33:47.387Z,1018.27
2023-11-18T11:34:46.666Z,1018.27
2023-11-18T11:35:46.852Z,1018.18
2023-11-18T11:36:46.633Z,1018.13
2023-11-18T11:37:46.628Z,1018.06
2023-11-18T11:38:47.932Z,1018.04
2023-11-18T11:39:46.564Z,1017.94
2023-11-18T11:40:46.632Z,1017.85
2023-11-18T11:41:46.596Z,1017.82
2023-11-18T11:42:46.549Z,1017.78
2023-11-18T11:43:46.618Z,1017.77
2023-11-18T11:44:46.525Z,1017.80
2023-11-18T11:45:46.518Z,1017.78
2023-11-18T11:46:46.638Z,1017.76
2023-11-18T11:47:46.614Z,1017.68
2023-11-18T11:48:46.497Z,1017.74
2023-11-18T11:49:46.460Z,1017.70
2023-11-18T11:50:46.447Z,1017.69
2023-11-18T11:51:46.444Z,1017.69
2023-11-18T11:52:46.428Z,1017.72
2023-11-18T11:53:46.405Z,1017.76
2023-11-18T11:54:46.397Z,1017.74
2023-11-18T11:55:46.395Z,1017.77
2023-11-18T11:56:46.375Z,1017.80
2023-11-18T11:57:46.320Z,1017.82
2023-11-18T11:58:46.469Z,1017.88
2023-11-18T11:59:46.285Z,1017.90
2023-11-18T12:00:46.276Z,1017.86
2023-11-18T12:01:46.500Z,1017.82
2023-11-18T12:02:46.339Z,1017.79
2023-11-18T12:03:47.261Z,1017.83
2023-11-18T12:04:46.294Z,1017.75
2023-11-18T12:05:46.283Z,1017.74